Terminal Aerodrome Forecast
Issued by NWS

Home | Current Version | Previous Version | Text Only | Print | Product List | Glossary On
Versions: 1 2 3 4 5 6 7 8 9 10 11 12
000
FTAK31 PAJN 301120
TAFAJN
TAF
PAJN 301120Z 3012/3112 08005KT P6SM FEW070 BKN200
     FM301800 24008KT P6SM BKN140
     FM310500 VRB04KT P6SM SCT120=

USA.gov is the U.S. government's official web portal to all federal, state and local government web resources and services.